USTRANSCOM 7518


ETAR
Ramstein Air Force Base
Ramstein, DE
EGUN
RAF Mildenhall
Mildenhall, GB

Activity Log

Date Flight Route Aircraft Duration
07/14/2019 CMB818 Not Available B763 1h 03m
05/30/2019 CMB818 TOLE2N RUDOT Y180 BITBU Y181 MAKIK UY181 DEMUL UM624 BUB UL608 COA UL179 SASKI UL608 SUMUM IDESI LAPRA B763 1h 02m

Route Details

Aircraft Information
Primary: Boeing 767-300BDSF
Backup: Boeing 757-200SF
Route Data
Distance: 322nm
Sched. Duration: 1h 10m
Avg. Duration: 1h 02m (-8m)
Times Flown: 2
Recm'd Route: Not Available
Planned Altitude: 36,000ft
Origin Wx: ETAR 190756Z 22010G15KT 9999 OVC036 03/02 A3001 RMK AO2A SLP176 T00280021 FZRANO
Dest. Wx: EGUN 190756Z AUTO 25017G24KT 9999 FEW036 11/11 A2957 RMK AO2 PK WND 24029/18 SLP017 T01110111 FZRANO
Notes: USTRANSCOM CONTRACT FLIGHT

Financial History
Total Freight: 188,507lbs
Average Load: 94,254lbs/flt
Fuel Used: 23,454lbs
Avg. Fuel Used: 11,727lbs/flt
Fuel Expense: $18,763
Avg. Fuel Expense: $9,382
Avg. Fuel Cost: $0.80/lbs
Total Gross Income: $454,302
Pilot Pay: $378
Total Expenses: $49,169
Total Revenue: $385,882
Average Revenue: $227,150.94